createdAt,value
2023-04-17T00:00:21.025Z,9.41
2023-04-17T00:02:47.987Z,9.40
2023-04-17T00:05:17.038Z,9.36
2023-04-17T00:07:44.924Z,9.36
2023-04-17T00:10:12.367Z,9.34
2023-04-17T00:12:39.360Z,9.32
2023-04-17T00:15:07.049Z,9.25
2023-04-17T00:17:34.185Z,9.20
2023-04-17T00:20:01.212Z,9.24
2023-04-17T00:22:28.154Z,9.20
2023-04-17T00:24:55.148Z,9.17
2023-04-17T00:27:22.123Z,9.16
2023-04-17T00:29:49.087Z,9.15
2023-04-17T00:32:15.946Z,9.12
2023-04-17T00:34:42.903Z,9.11
2023-04-17T00:37:09.868Z,9.10
2023-04-17T00:39:36.847Z,9.08
2023-04-17T00:42:04.291Z,9.08
2023-04-17T00:44:31.213Z,9.09
2023-04-17T00:46:58.745Z,9.11
2023-04-17T00:49:28.125Z,9.15
2023-04-17T00:51:55.932Z,9.18
2023-04-17T00:54:24.645Z,9.17
2023-04-17T00:56:54.574Z,9.15
2023-04-17T00:59:23.077Z,9.11
2023-04-17T01:01:50.241Z,9.08
2023-04-17T01:04:17.450Z,9.04
2023-04-17T01:06:44.736Z,9.03
2023-04-17T01:09:12.390Z,9.01
2023-04-17T01:11:39.725Z,8.98
2023-04-17T01:14:06.849Z,8.95
2023-04-17T01:16:33.931Z,8.93
2023-04-17T01:19:01.410Z,8.91
2023-04-17T01:21:28.428Z,8.90
2023-04-17T01:23:56.101Z,8.89
2023-04-17T01:26:31.771Z,8.88
2023-04-17T01:29:00.158Z,8.84
2023-04-17T01:31:29.501Z,8.84
2023-04-17T01:33:56.732Z,8.85
2023-04-17T01:36:23.866Z,8.83
2023-04-17T01:38:50.829Z,8.82
2023-04-17T01:41:18.889Z,8.81
2023-04-17T01:43:48.539Z,8.78
2023-04-17T01:46:15.559Z,8.77
2023-04-17T01:48:42.541Z,8.74
2023-04-17T01:51:09.670Z,8.71
2023-04-17T01:53:38.196Z,8.69
2023-04-17T01:56:05.384Z,8.68
2023-04-17T01:58:32.570Z,8.67
2023-04-17T02:01:00.640Z,8.62
2023-04-17T02:03:28.173Z,8.62
2023-04-17T02:05:55.745Z,8.62
2023-04-17T02:08:22.888Z,8.58
2023-04-17T02:10:50.248Z,8.62
2023-04-17T02:13:17.145Z,8.64
2023-04-17T02:15:44.537Z,8.66
2023-04-17T02:18:33.132Z,8.69
2023-04-17T02:21:00.527Z,8.72
2023-04-17T02:23:27.679Z,8.71
2023-04-17T02:25:54.619Z,8.73
2023-04-17T02:28:21.582Z,8.73
2023-04-17T02:30:48.866Z,8.76
2023-04-17T02:33:16.513Z,8.75
2023-04-17T02:35:44.045Z,8.76
2023-04-17T02:38:10.998Z,8.77
2023-04-17T02:40:39.740Z,8.78
2023-04-17T02:43:06.795Z,8.77
2023-04-17T02:45:35.048Z,8.76
2023-04-17T02:48:02.725Z,8.77
2023-04-17T02:50:30.316Z,8.82
2023-04-17T02:53:10.277Z,8.82
2023-04-17T02:55:37.487Z,8.82
2023-04-17T02:58:04.538Z,8.81
2023-04-17T03:00:31.521Z,8.73
2023-04-17T03:02:58.790Z,8.68
2023-04-17T03:05:26.130Z,8.67
2023-04-17T03:07:54.630Z,8.63
2023-04-17T03:10:21.765Z,8.58
2023-04-17T03:12:49.359Z,8.53
2023-04-17T03:15:16.598Z,8.48
2023-04-17T03:17:44.368Z,8.35
2023-04-17T03:20:11.696Z,8.43
2023-04-17T03:22:38.825Z,8.41
2023-04-17T03:25:07.396Z,8.43
2023-04-17T03:27:43.333Z,8.47
2023-04-17T03:30:10.776Z,8.52
2023-04-17T03:32:38.241Z,8.57
2023-04-17T03:35:05.706Z,8.61
2023-04-17T03:37:34.165Z,8.68
2023-04-17T03:40:01.566Z,8.72
2023-04-17T03:42:30.614Z,8.78
2023-04-17T03:44:57.713Z,8.81
2023-04-17T03:47:26.500Z,8.86
2023-04-17T03:49:53.998Z,8.94
2023-04-17T03:52:20.992Z,9.05
2023-04-17T03:54:52.929Z,9.14
2023-04-17T03:57:19.881Z,9.23
2023-04-17T03:59:47.581Z,9.31
2023-04-17T04:02:15.202Z,9.35
2023-04-17T04:04:43.122Z,9.43
2023-04-17T04:07:14.355Z,9.49
2023-04-17T04:09:41.324Z,9.52
2023-04-17T04:12:09.232Z,9.55
2023-04-17T04:14:41.930Z,9.59
2023-04-17T04:17:10.284Z,9.59
2023-04-17T04:19:38.514Z,9.61
2023-04-17T04:22:06.825Z,9.59
2023-04-17T04:24:44.128Z,9.57
2023-04-17T04:27:18.156Z,9.58
2023-04-17T04:29:49.014Z,9.60
2023-04-17T04:32:19.142Z,9.63
2023-04-17T04:34:47.268Z,9.65
2023-04-17T04:37:15.758Z,9.67
2023-04-17T04:39:47.412Z,9.73
2023-04-17T04:42:22.169Z,9.78
2023-04-17T04:45:10.411Z,9.80
2023-04-17T04:47:37.772Z,9.89
2023-04-17T04:50:05.277Z,9.97
2023-04-17T04:52:34.004Z,10.07
2023-04-17T04:55:06.580Z,10.14
2023-04-17T04:57:36.513Z,10.18
2023-04-17T05:00:06.642Z,10.20
2023-04-17T05:02:41.589Z,10.24
2023-04-17T05:05:11.187Z,10.26
2023-04-17T05:07:38.189Z,10.34
2023-04-17T05:10:07.994Z,10.44
2023-04-17T05:12:38.983Z,10.50
2023-04-17T05:15:08.476Z,10.63
2023-04-17T05:17:36.597Z,10.67
2023-04-17T05:20:07.057Z,10.67
2023-04-17T05:22:36.572Z,10.63
2023-04-17T05:25:09.130Z,10.53
2023-04-17T05:27:36.171Z,10.49
2023-04-17T05:30:03.567Z,10.48
2023-04-17T05:32:32.226Z,10.50
2023-04-17T05:35:06.628Z,10.52
2023-04-17T05:37:33.902Z,10.61
2023-04-17T05:40:01.568Z,10.77
2023-04-17T05:42:29.869Z,10.89
2023-04-17T05:44:57.320Z,11.09
2023-04-17T05:47:24.297Z,11.32
2023-04-17T05:49:57.458Z,11.53
2023-04-17T05:52:27.759Z,11.68
2023-04-17T05:54:54.739Z,11.77
2023-04-17T05:57:21.714Z,11.88
2023-04-17T05:59:49.407Z,12.02
2023-04-17T06:02:17.021Z,12.14
2023-04-17T06:04:44.515Z,12.25
2023-04-17T06:07:12.429Z,12.35
2023-04-17T06:09:40.922Z,12.46
2023-04-17T06:12:14.875Z,12.52
2023-04-17T06:14:43.893Z,12.70
2023-04-17T06:17:12.486Z,12.81
2023-04-17T06:19:39.827Z,12.94
2023-04-17T06:22:07.381Z,13.07
2023-04-17T06:24:34.639Z,13.18
2023-04-17T06:27:02.113Z,13.22
2023-04-17T06:29:30.181Z,13.32
2023-04-17T06:31:57.326Z,13.41
2023-04-17T06:34:24.434Z,13.52
2023-04-17T06:36:51.779Z,13.66
2023-04-17T06:39:18.756Z,13.76
2023-04-17T06:41:48.367Z,13.87
2023-04-17T06:44:20.719Z,14.03
2023-04-17T06:46:52.550Z,14.14
2023-04-17T06:49:19.802Z,14.23
2023-04-17T06:51:47.551Z,14.29
2023-04-17T06:54:14.538Z,14.37
2023-04-17T06:56:41.604Z,14.42
2023-04-17T06:59:09.147Z,14.48
2023-04-17T07:01:38.197Z,14.60
2023-04-17T07:04:06.173Z,14.70
2023-04-17T07:06:36.664Z,14.78
2023-04-17T07:09:06.559Z,14.86
2023-04-17T07:11:35.134Z,14.94
2023-04-17T07:14:02.207Z,14.95
2023-04-17T07:16:29.260Z,14.98
2023-04-17T07:18:56.297Z,15.02
2023-04-17T07:21:23.229Z,15.06
2023-04-17T07:23:52.388Z,15.05
2023-04-17T07:26:19.444Z,15.05
2023-04-17T07:28:46.544Z,15.08
2023-04-17T07:31:13.612Z,15.03
2023-04-17T07:33:43.848Z,14.96
2023-04-17T07:36:13.840Z,14.94
2023-04-17T07:38:42.334Z,14.89
2023-04-17T07:41:09.407Z,14.87
2023-04-17T07:43:36.531Z,14.90
2023-04-17T07:46:06.564Z,14.94
2023-04-17T07:48:33.934Z,14.94
2023-04-17T07:51:03.759Z,14.80
2023-04-17T07:53:31.090Z,14.71
2023-04-17T07:55:58.638Z,14.57
2023-04-17T07:58:29.540Z,14.49
2023-04-17T08:00:56.698Z,14.48
2023-04-17T08:03:27.070Z,14.45
2023-04-17T08:05:56.809Z,14.51
2023-04-17T08:08:24.042Z,14.47
2023-04-17T08:10:51.343Z,14.47
2023-04-17T08:13:19.505Z,14.44
2023-04-17T08:15:46.790Z,14.48
2023-04-17T08:18:14.025Z,14.61
2023-04-17T08:20:41.019Z,14.76
2023-04-17T08:23:07.922Z,14.86
2023-04-17T08:25:34.955Z,15.04
2023-04-17T08:28:02.293Z,15.12
2023-04-17T08:30:29.370Z,15.01
2023-04-17T08:32:57.758Z,14.98
2023-04-17T08:35:25.608Z,15.06
2023-04-17T08:37:52.647Z,15.22
2023-04-17T08:40:23.412Z,15.33
2023-04-17T08:42:52.137Z,15.47
2023-04-17T08:45:21.008Z,15.68
2023-04-17T08:47:48.411Z,15.93
2023-04-17T08:50:21.982Z,16.15
2023-04-17T08:52:51.156Z,16.28
2023-04-17T08:55:21.543Z,16.34
2023-04-17T08:58:18.040Z,16.32
2023-04-17T09:00:45.739Z,16.31
2023-04-17T09:03:14.300Z,16.39
2023-04-17T09:05:45.880Z,16.51
2023-04-17T09:08:25.522Z,16.64
2023-04-17T09:10:55.960Z,16.70
2023-04-17T09:13:25.609Z,16.76
2023-04-17T09:16:09.110Z,16.81
2023-04-17T09:18:38.050Z,16.76
2023-04-17T09:21:06.721Z,16.80
2023-04-17T09:23:55.506Z,16.99
2023-04-17T09:26:25.134Z,17.01
2023-04-17T09:29:08.616Z,17.12
2023-04-17T09:31:38.070Z,17.19
2023-04-17T09:34:07.814Z,17.40
2023-04-17T09:36:39.074Z,17.56
2023-04-17T09:39:21.061Z,17.53
2023-04-17T09:41:48.282Z,17.39
2023-04-17T09:44:28.009Z,17.43
2023-04-17T09:46:55.751Z,17.44
2023-04-17T09:49:42.865Z,17.51
2023-04-17T09:52:09.996Z,17.41
2023-04-17T09:54:39.985Z,17.39
2023-04-17T09:57:09.179Z,17.38
2023-04-17T09:59:41.654Z,17.28
2023-04-17T10:02:09.923Z,17.22
2023-04-17T10:04:41.535Z,17.26
2023-04-17T10:07:08.829Z,17.23
2023-04-17T10:09:36.000Z,17.20
2023-04-17T10:12:04.473Z,17.22
2023-04-17T10:14:34.129Z,17.07
2023-04-17T10:17:34.899Z,16.94
2023-04-17T10:20:25.121Z,16.82
2023-04-17T10:22:56.539Z,16.62
2023-04-17T10:25:28.038Z,16.43
2023-04-17T10:28:02.333Z,16.35
2023-04-17T10:30:55.711Z,16.33
2023-04-17T10:33:27.362Z,16.22
2023-04-17T10:35:55.064Z,16.11
2023-04-17T10:38:36.343Z,16.04
2023-04-17T10:41:09.139Z,15.99
2023-04-17T10:43:41.278Z,16.07
2023-04-17T10:46:12.803Z,16.08
2023-04-17T10:48:52.269Z,16.14
2023-04-17T10:51:27.895Z,16.18
2023-04-17T10:54:03.197Z,16.25
2023-04-17T10:56:37.374Z,16.33
2023-04-17T10:59:05.423Z,16.50
2023-04-17T11:01:55.989Z,16.66
2023-04-17T11:04:28.528Z,16.87
2023-04-17T11:06:55.955Z,17.05
2023-04-17T11:09:25.343Z,17.13
2023-04-17T11:11:52.329Z,17.12
2023-04-17T11:14:21.680Z,17.13
2023-04-17T11:16:51.387Z,17.20
2023-04-17T11:19:23.847Z,17.31
2023-04-17T11:21:53.775Z,17.36
2023-04-17T11:24:29.882Z,17.49
2023-04-17T11:27:03.699Z,17.57
2023-04-17T11:29:31.064Z,17.77
2023-04-17T11:32:00.285Z,17.91
2023-04-17T11:34:27.810Z,17.88
2023-04-17T11:36:59.742Z,17.79
2023-04-17T11:39:32.199Z,17.60
2023-04-17T11:41:59.175Z,17.50
2023-04-17T11:44:26.497Z,17.49
2023-04-17T11:46:55.364Z,17.53
2023-04-17T11:49:30.769Z,17.62
2023-04-17T11:52:01.391Z,17.62
2023-04-17T11:54:30.797Z,17.63
2023-04-17T11:57:06.383Z,17.69
2023-04-17T11:59:38.514Z,17.70
2023-04-17T12:02:07.580Z,17.55
2023-04-17T12:04:36.974Z,17.60
2023-04-17T12:07:05.525Z,17.81
2023-04-17T12:09:36.620Z,18.02
2023-04-17T12:12:08.009Z,18.42
2023-04-17T12:14:35.610Z,19.16
2023-04-17T12:17:02.990Z,20.06
2023-04-17T12:19:32.017Z,20.55
2023-04-17T12:21:59.712Z,20.62
2023-04-17T12:24:26.892Z,20.51
2023-04-17T12:26:54.632Z,20.61
2023-04-17T12:29:36.009Z,20.70
2023-04-17T12:32:10.540Z,20.62
2023-04-17T12:34:37.710Z,20.54
2023-04-17T12:37:04.734Z,20.58
2023-04-17T12:39:33.463Z,20.80
2023-04-17T12:42:00.783Z,21.04
2023-04-17T12:44:27.773Z,21.13
2023-04-17T12:46:54.821Z,20.95
2023-04-17T12:49:23.862Z,20.40
2023-04-17T12:51:51.531Z,19.85
2023-04-17T12:54:19.038Z,19.69
2023-04-17T12:56:46.098Z,19.71
2023-04-17T12:59:13.005Z,19.86
2023-04-17T13:01:40.237Z,20.07
2023-04-17T13:04:07.873Z,20.13
2023-04-17T13:06:34.955Z,20.13
2023-04-17T13:09:02.033Z,20.44
2023-04-17T13:11:29.077Z,20.55
2023-04-17T13:13:56.027Z,20.29
2023-04-17T13:16:23.226Z,19.95
2023-04-17T13:18:50.120Z,19.48
2023-04-17T13:21:16.968Z,19.07
2023-04-17T13:23:43.952Z,18.63
2023-04-17T13:26:11.027Z,18.23
2023-04-17T13:28:37.874Z,17.91
2023-04-17T13:31:04.817Z,17.69
2023-04-17T13:33:31.859Z,17.55
2023-04-17T13:35:58.994Z,17.47
2023-04-17T13:38:26.054Z,17.39
2023-04-17T13:40:52.900Z,17.41
2023-04-17T13:43:19.849Z,17.91
2023-04-17T13:45:46.764Z,18.26
2023-04-17T13:48:13.963Z,18.53
2023-04-17T13:50:42.630Z,18.68
2023-04-17T13:53:11.112Z,18.71
2023-04-17T13:55:38.334Z,18.69
2023-04-17T13:58:05.474Z,18.52
2023-04-17T14:00:32.477Z,18.32
2023-04-17T14:03:00.862Z,18.10
2023-04-17T14:05:28.041Z,18.00
2023-04-17T14:07:54.922Z,18.01
2023-04-17T14:10:22.026Z,17.98
2023-04-17T14:12:49.134Z,18.12
2023-04-17T14:15:16.310Z,18.23
2023-04-17T14:17:43.435Z,18.02
2023-04-17T14:20:11.577Z,17.63
2023-04-17T14:22:38.811Z,17.33
2023-04-17T14:25:06.178Z,17.06
2023-04-17T14:27:35.744Z,16.86
2023-04-17T14:30:02.839Z,16.69
2023-04-17T14:32:31.169Z,16.57
2023-04-17T14:34:58.265Z,16.52
2023-04-17T14:37:26.490Z,16.44
2023-04-17T14:39:53.545Z,16.30
2023-04-17T14:42:20.563Z,16.12
2023-04-17T14:44:47.582Z,16.00
2023-04-17T14:47:14.718Z,15.87
2023-04-17T14:49:42.110Z,15.73
2023-04-17T14:52:08.984Z,15.63
2023-04-17T14:54:35.949Z,15.59
2023-04-17T14:57:02.850Z,15.55
2023-04-17T14:59:29.843Z,15.49
2023-04-17T15:01:57.158Z,15.39
2023-04-17T15:04:24.458Z,15.32
2023-04-17T15:06:51.545Z,15.22
2023-04-17T15:09:18.571Z,15.10
2023-04-17T15:11:47.090Z,14.99
2023-04-17T15:14:14.279Z,14.83
2023-04-17T15:16:41.290Z,14.73
2023-04-17T15:19:11.010Z,14.57
2023-04-17T15:21:38.141Z,14.42
2023-04-17T15:24:07.543Z,14.37
2023-04-17T15:26:35.681Z,14.30
2023-04-17T15:29:03.857Z,14.30
2023-04-17T15:31:30.846Z,14.25
2023-04-17T15:33:57.991Z,14.20
2023-04-17T15:36:31.370Z,14.16
2023-04-17T15:38:58.304Z,14.15
2023-04-17T15:41:25.672Z,14.10
2023-04-17T15:43:52.712Z,14.04
2023-04-17T15:46:19.770Z,13.95
2023-04-17T15:48:57.733Z,13.90
2023-04-17T15:51:34.741Z,13.81
2023-04-17T15:54:01.696Z,13.77
2023-04-17T15:56:28.906Z,13.71
2023-04-17T15:58:55.933Z,13.66
2023-04-17T16:01:23.072Z,13.62
2023-04-17T16:03:50.232Z,13.57
2023-04-17T16:06:17.466Z,13.51
2023-04-17T16:08:44.391Z,13.48
2023-04-17T16:11:12.628Z,13.45
2023-04-17T16:13:39.791Z,13.40
2023-04-17T16:16:07.062Z,13.40
2023-04-17T16:18:33.989Z,13.38
2023-04-17T16:21:01.176Z,13.32
2023-04-17T16:23:28.267Z,13.25
2023-04-17T16:25:55.465Z,13.25
2023-04-17T16:28:23.981Z,13.23
2023-04-17T16:30:50.936Z,13.20
2023-04-17T16:33:18.083Z,13.15
2023-04-17T16:35:45.062Z,13.12
2023-04-17T16:38:12.164Z,13.07
2023-04-17T16:40:39.613Z,13.04
2023-04-17T16:43:06.557Z,13.01
2023-04-17T16:45:33.832Z,12.98
2023-04-17T16:48:01.145Z,12.96
2023-04-17T16:50:28.134Z,12.94
2023-04-17T16:52:55.068Z,12.93
2023-04-17T16:55:22.264Z,12.90
2023-04-17T16:57:49.208Z,12.85
2023-04-17T17:00:16.793Z,12.85
2023-04-17T17:02:44.127Z,12.80
2023-04-17T17:05:11.455Z,12.81
2023-04-17T17:07:38.569Z,12.78
2023-04-17T17:10:06.180Z,12.73
2023-04-17T17:12:33.153Z,12.74
2023-04-17T17:15:00.193Z,12.69
2023-04-17T17:17:30.192Z,12.69
2023-04-17T17:19:57.250Z,12.68
2023-04-17T17:22:24.173Z,12.67
2023-04-17T17:24:51.350Z,12.66
2023-04-17T17:27:18.398Z,12.64
2023-04-17T17:29:45.370Z,12.65
2023-04-17T17:32:12.449Z,12.65
2023-04-17T17:34:39.347Z,12.63
2023-04-17T17:37:06.451Z,12.63
2023-04-17T17:39:33.679Z,12.62
2023-04-17T17:42:03.071Z,12.61
2023-04-17T17:44:30.160Z,12.60
2023-04-17T17:46:57.092Z,12.59
2023-04-17T17:49:24.108Z,12.57
2023-04-17T17:51:51.317Z,12.56
2023-04-17T17:54:18.291Z,12.53
2023-04-17T17:56:45.266Z,12.54
2023-04-17T17:59:12.311Z,12.56
2023-04-17T18:01:40.339Z,12.56
2023-04-17T18:04:07.639Z,12.54
2023-04-17T18:06:34.689Z,12.53
2023-04-17T18:09:04.903Z,12.52
2023-04-17T18:11:32.010Z,12.51
2023-04-17T18:14:00.880Z,12.48
2023-04-17T18:16:32.797Z,12.49
2023-04-17T18:19:03.601Z,12.50
2023-04-17T18:21:31.681Z,12.48
2023-04-17T18:23:58.742Z,12.49
2023-04-17T18:26:31.967Z,12.48
2023-04-17T18:28:58.904Z,12.48
2023-04-17T18:31:26.920Z,12.46
2023-04-17T18:33:54.254Z,12.46
2023-04-17T18:36:21.319Z,12.45
2023-04-17T18:38:48.329Z,12.44
2023-04-17T18:41:15.372Z,12.43
2023-04-17T18:43:42.266Z,12.40
2023-04-17T18:46:09.325Z,12.40
2023-04-17T18:48:36.586Z,12.37
2023-04-17T18:51:14.859Z,12.34
2023-04-17T18:53:41.853Z,12.32
2023-04-17T18:56:10.890Z,12.30
2023-04-17T18:58:43.410Z,12.27
2023-04-17T19:01:10.863Z,12.25
2023-04-17T19:03:41.687Z,12.19
2023-04-17T19:06:08.776Z,12.23
2023-04-17T19:08:36.521Z,12.23
2023-04-17T19:11:03.686Z,12.22
2023-04-17T19:13:30.880Z,12.22
2023-04-17T19:15:57.955Z,12.22
2023-04-17T19:18:29.265Z,12.20
2023-04-17T19:20:56.392Z,12.23
2023-04-17T19:23:23.356Z,12.21
2023-04-17T19:25:56.455Z,12.19
2023-04-17T19:28:25.053Z,12.15
2023-04-17T19:30:52.077Z,12.14
2023-04-17T19:33:20.387Z,12.09
2023-04-17T19:35:47.377Z,12.05
2023-04-17T19:38:16.779Z,12.02
2023-04-17T19:40:48.064Z,11.98
2023-04-17T19:43:15.192Z,11.94
2023-04-17T19:45:42.408Z,11.91
2023-04-17T19:48:09.480Z,11.90
2023-04-17T19:50:36.548Z,11.85
2023-04-17T19:53:03.628Z,11.84
2023-04-17T19:55:30.786Z,11.82
2023-04-17T19:57:58.920Z,11.82
2023-04-17T20:00:25.988Z,11.82
2023-04-17T20:02:53.170Z,11.82
2023-04-17T20:05:20.365Z,11.80
2023-04-17T20:07:48.895Z,11.79
2023-04-17T20:10:16.921Z,11.77
2023-04-17T20:12:45.031Z,11.77
2023-04-17T20:15:12.143Z,11.77
2023-04-17T20:17:40.738Z,11.76
2023-04-17T20:20:08.264Z,11.70
2023-04-17T20:22:36.099Z,11.73
2023-04-17T20:25:03.216Z,11.75
2023-04-17T20:27:30.448Z,11.74
2023-04-17T20:29:57.473Z,11.72
2023-04-17T20:32:24.598Z,11.70
2023-04-17T20:34:51.709Z,11.72
2023-04-17T20:37:18.779Z,11.70
2023-04-17T20:39:45.710Z,11.70
2023-04-17T20:42:12.670Z,11.69
2023-04-17T20:44:39.552Z,11.71
2023-04-17T20:47:06.753Z,11.70
2023-04-17T20:49:34.083Z,11.71
2023-04-17T20:52:03.146Z,11.71
2023-04-17T20:54:30.046Z,11.71
2023-04-17T20:56:57.203Z,11.70
2023-04-17T20:59:24.192Z,11.69
2023-04-17T21:01:54.099Z,11.68
2023-04-17T21:04:22.098Z,11.69
2023-04-17T21:06:49.151Z,11.69
2023-04-17T21:09:16.532Z,11.65
2023-04-17T21:11:43.633Z,11.61
2023-04-17T21:14:14.083Z,11.56
2023-04-17T21:16:44.459Z,11.63
2023-04-17T21:19:11.948Z,11.62
2023-04-17T21:21:39.047Z,11.61
2023-04-17T21:24:06.276Z,11.60
2023-04-17T21:26:33.219Z,11.57
2023-04-17T21:29:00.494Z,11.55
2023-04-17T21:31:27.517Z,11.52
2023-04-17T21:33:54.464Z,11.51
2023-04-17T21:36:22.665Z,11.49
2023-04-17T21:38:49.746Z,11.48
2023-04-17T21:41:16.860Z,11.45
2023-04-17T21:43:44.075Z,11.48
2023-04-17T21:46:12.082Z,11.49
2023-04-17T21:48:39.606Z,11.45
2023-04-17T21:51:06.791Z,11.46
2023-04-17T21:53:35.786Z,11.47
2023-04-17T21:56:04.417Z,11.46
2023-04-17T21:58:33.359Z,11.45
2023-04-17T22:01:00.374Z,11.44
2023-04-17T22:03:27.639Z,11.44
2023-04-17T22:05:56.756Z,11.44
2023-04-17T22:08:24.434Z,11.44
2023-04-17T22:10:54.846Z,11.44
2023-04-17T22:13:21.991Z,11.45
2023-04-17T22:15:49.539Z,11.45
2023-04-17T22:18:16.666Z,11.45
2023-04-17T22:20:43.663Z,11.44
2023-04-17T22:23:10.584Z,11.46
2023-04-17T22:25:37.863Z,11.45
2023-04-17T22:28:05.039Z,11.45
2023-04-17T22:30:32.077Z,11.44
2023-04-17T22:32:59.050Z,11.47
2023-04-17T22:35:27.048Z,11.44
2023-04-17T22:37:54.018Z,11.45
2023-04-17T22:40:21.273Z,11.43
2023-04-17T22:42:49.359Z,11.44
2023-04-17T22:45:16.476Z,11.42
2023-04-17T22:47:43.428Z,11.44
2023-04-17T22:50:14.412Z,11.45
2023-04-17T22:52:41.601Z,11.45
2023-04-17T22:55:08.869Z,11.45
2023-04-17T22:57:36.261Z,11.44
2023-04-17T23:00:04.018Z,11.40
2023-04-17T23:02:31.306Z,11.43
2023-04-17T23:04:58.350Z,11.42
2023-04-17T23:07:25.392Z,11.42
2023-04-17T23:09:52.370Z,11.41
2023-04-17T23:12:19.301Z,11.40
2023-04-17T23:14:48.500Z,11.38
2023-04-17T23:17:15.495Z,11.34
2023-04-17T23:19:42.721Z,11.33
2023-04-17T23:22:10.138Z,11.31
2023-04-17T23:24:37.483Z,11.28
2023-04-17T23:27:04.686Z,11.27
2023-04-17T23:29:31.690Z,11.27
2023-04-17T23:31:58.739Z,11.24
2023-04-17T23:34:27.351Z,11.17
2023-04-17T23:36:54.469Z,11.21
2023-04-17T23:39:21.855Z,11.23
2023-04-17T23:41:49.064Z,11.22
2023-04-17T23:44:16.174Z,11.21
2023-04-17T23:46:43.285Z,11.21
2023-04-17T23:49:10.278Z,11.21
2023-04-17T23:51:37.433Z,11.18
2023-04-17T23:54:04.827Z,11.20
2023-04-17T23:56:31.958Z,11.18
2023-04-17T23:58:59.024Z,11.18
